• Join FlightAware (Why Join?)
  • Login
  • US Flag 
07:55PM EDT


 

Airport Tracker/Info


-or-


 

Live Flight TrackerFlight Track Log ✈ LOF3378 ✈ 12-May-2013 ✈ KMDT - KORD

Flight Track Log - Related Links

Times and Time Zones

All times are in EDT time to prevent confusion due to time zone crossing. See the LOF3378 flight status page for this flight to view local times or setup timezone preferences in your user account.

Time Position Orientation Groundspeed Altitude Reporting Facility
EDT Latitude Longitude Course Direction KTS MPH feet Rate Location/Type
11:59AM 40.2411 -76.8783 318° Northwest 223 257 4,200  Level New York Center
12:00PM 40.2806 -76.9581 303° West 238 274 7,100 2,220 Climbing New York Center
12:01PM 40.3150 -77.0183 307° West 243 280 8,700 1,740 Climbing New York Center
12:02PM 40.3608 -77.0961 308° West 238 274 10,700 1,560 Climbing New York Center
12:03PM 40.4008 -77.1653 307° West 256 295 11,800 1,260 Climbing New York Center
12:04PM 40.4785 -77.3403 303° West  Level FlightAware Approximate
12:04PM 40.4581 -77.2633 308° West 297 342 13,300  Level New York Center
12:05PM 40.5404 -77.4317 318° Northwest  Level FlightAware Approximate
12:05PM 40.5036 -77.3439 307° West 308 354 14,700  Level New York Center
12:06PM 40.5644 -77.4483 307° West 308 354 16,200 1,500 Climbing New York Center
12:08PM 40.6394 -77.6169 300° West 323 372 18,800 1,500 Climbing Cleveland Center
12:09PM 40.6506 -77.7286 278° West 309 356 20,300 1,500 Climbing Cleveland Center
12:10PM 40.6617 -77.8431 277° West 309 356 21,900 1,500 Climbing Cleveland Center
12:11PM 40.6769 -77.9519 281° West 314 361 23,400 1,500 Climbing Cleveland Center
12:12PM 40.6919 -78.0664 280° West 314 361 24,900 1,500 Climbing Cleveland Center
12:13PM 40.7089 -78.1781 281° West 314 361 26,400 1,440 Climbing Cleveland Center
12:14PM 40.7217 -78.2844 279° West 314 361 27,800 1,200 Climbing Cleveland Center
12:15PM 40.7364 -78.3964 280° West 314 361 28,800 1,020 Climbing Cleveland Center
12:16PM 40.7531 -78.5108 281° West 314 361 29,900 600 Climbing Cleveland Center
12:17PM 40.7697 -78.6311 280° West 314 361 30,000 300 Climbing Cleveland Center
12:18PM 40.7842 -78.7431 280° West 329 379 30,600 900 Climbing Cleveland Center
12:19PM 40.8006 -78.8717 280° West 351 404 31,800 1,200 Climbing Cleveland Center
12:20PM 40.8214 -79.0136 281° West 362 417 33,100 1,200 Climbing Cleveland Center
12:21PM 40.8378 -79.1369 280° West 357 411 34,200 1,140 Climbing Cleveland Center
12:22PM 40.8539 -79.2600 280° West 351 404 35,400 900 Climbing Cleveland Center
12:23PM 40.8697 -79.3806 280° West 351 404 36,000 300 Climbing Cleveland Center
12:24PM 40.8856 -79.5092 279° West 351 404 36,000  Level Cleveland Center
12:25PM 40.9014 -79.6436 279° West 363 418 36,000  Level Cleveland Center
12:26PM 40.9169 -79.7808 279° West 374 430 36,000  Level Cleveland Center
12:27PM 40.9344 -79.9069 280° West 381 438 36,000  Level Cleveland Center
12:28PM 40.9728 -80.0386 291° West 381 438 36,000  Level Cleveland Center
12:29PM 41.0669 -80.1258 325° Northwest 381 438 36,000  Level Cleveland Center
12:30PM 41.1694 -80.2053 330° Northwest 401 461 36,000  Level Cleveland Center
12:31PM 41.2633 -80.2931 325° Northwest 412 474 36,000  Level Cleveland Center
12:32PM 41.3075 -80.4367 292° West 377 434 36,000  Level Cleveland Center
12:33PM 41.2678 -80.5611 247° West 352 405 36,000  Level Cleveland Center
12:34PM 41.2158 -80.6742 239° Southwest 359 413 36,000  Level Cleveland Center
12:35PM 41.2133 -80.8094 269° West 359 413 36,000  Level Cleveland Center
12:36PM 41.2153 -80.9475 271° West 367 422 36,000  Level Cleveland Center
12:37PM 41.2189 -81.0856 272° West 367 422 36,000  Level Cleveland Center
12:38PM 41.2222 -81.2236 272° West 367 422 36,000  Level Cleveland Center
12:39PM 41.2236 -81.3589 271° West 372 428 36,000  Level Cleveland Center
12:40PM 41.2289 -81.4803 273° West 372 428 36,000  Level Cleveland Center
12:41PM 41.2319 -81.6183 272° West 372 428 36,000  Level Cleveland Center
12:42PM 41.2325 -81.7594 270° West 372 428 36,000  Level Cleveland Center
12:43PM 41.2333 -81.8972 271° West 372 428 36,000  Level Cleveland Center
12:44PM 41.2503 -82.0303 280° West 372 428 36,000  Level Cleveland Center
12:45PM 41.2986 -82.1722 294° West 373 429 36,000  Level Cleveland Center
12:46PM 41.3447 -82.2981 296° West 381 438 36,000  Level Cleveland Center
12:47PM 41.3906 -82.4264 295° West 381 438 36,000  Level Cleveland Center
12:48PM 41.4364 -82.5553 295° West 381 438 36,000  Level Cleveland Center
12:49PM 41.4425 -82.6744 274° West 373 429 36,000  Level Cleveland Center
12:50PM 41.4275 -82.8125 262° West 367 422 36,000  Level Cleveland Center
12:51PM 41.4144 -82.9506 263° West 373 429 36,000  Level Cleveland Center
12:52PM 41.4011 -83.0856 263° West 373 429 36,000  Level Cleveland Center
12:53PM 41.3850 -83.2344 262° West 373 429 36,000  Level Cleveland Center
12:54PM 41.3714 -83.3722 263° West 373 429 36,000  Level Cleveland Center
12:55PM 41.3681 -83.5106 268° West 373 429 36,000  Level Cleveland Center
12:56PM 41.3644 -83.6486 268° West 373 429 36,000  Level Cleveland Center
12:57PM 41.3606 -83.7897 268° West 373 429 36,000  Level Cleveland Center
12:58PM 41.3519 -84.0086 267° West 382 440 36,000 -120 Level Chicago Center
01:00PM 41.3472 -84.1497 267° West 382 440 35,700 -600 Descending Chicago Center
01:01PM 41.3417 -84.2892 267° West 378 435 34,800 -840 Descending Chicago Center
01:02PM 41.3358 -84.4250 267° West 369 425 34,000 -420 Descending Chicago Center
01:03PM 41.3308 -84.5594 267° West 365 420 34,000  Level Chicago Center
01:04PM 41.3242 -84.7175 267° West 357 411 34,000  Level Chicago Center
01:05PM 41.3183 -84.8508 267° West 359 413 34,000  Level Chicago Center
01:06PM 41.3119 -84.9867 266° West 366 421 34,000 -720 Level Chicago Center
01:07PM 41.3053 -85.1236 266° West 369 425 32,600 -1,740 Descending Chicago Center
01:08PM 41.2992 -85.2631 267° West 375 432 30,500 -2,040 Descending Chicago Center
01:09PM 41.2919 -85.3978 266° West 368 423 28,500 -1,980 Descending Chicago Center
01:10PM 41.2847 -85.5406 266° West 379 436 26,500 -1,500 Descending Chicago Center
01:11PM 41.2781 -85.6839 267° West 385 443 25,500 -780 Descending Chicago Center
01:12PM 41.2697 -85.8536 266° West 381 438 25,000 -300 Descending Chicago Center
01:13PM 41.2794 -85.9944 275° West 381 438 25,000 -540 Level Chicago Center
01:14PM 41.2942 -86.1319 278° West 377 434 24,000 -1,020 Descending Chicago Center
01:15PM 41.3108 -86.2694 279° West 376 433 23,000 -1,080 Descending Chicago Center
01:16PM 41.3256 -86.4031 278° West 367 422 21,800 -2,040 Descending Chicago Center
01:17PM 41.3422 -86.5317 280° West 356 410 18,800 -2,760 Descending Chicago Center
01:18PM 41.3836 -86.6425 296° West 334 384 16,100 -2,520 Descending Chicago Center
01:19PM 41.4817 -86.7078 333° Northwest 328 377 13,600 -1,920 Descending Chicago Center
01:20PM 41.5589 -86.7447 340° North 327 376 12,200 -780 Descending Chicago Center
01:21PM 41.6422 -86.7867 339° North 324 373 12,000 -420 Descending Chicago Center
01:22PM 41.7436 -86.8058 352° North 312 359 11,400 -540 Descending Chicago Center
01:23PM 41.8297 -86.8222 352° North 315 362 11,000 -180 Descending Chicago Center
01:24PM 41.9006 -86.8778 330° Northwest 312 359 11,100  Climbing Chicago Center
01:25PM 41.9336 -86.9819 293° West 308 354 11,000 -60 Descending Chicago Center
01:26PM 41.9661 -87.0883 292° West 312 359 11,000 -780 Level Chicago Center
01:27PM 41.9878 -87.1975 285° West 263 303 9,500 -1,260 Descending Chicago Center
01:28PM 41.9806 -87.2914 264° West 255 293 8,400 -1,020 Descending Chicago Center
01:29PM 41.9844 -87.3825 273° West 248 285 7,400 -960 Descending Chicago Center
01:30PM 41.9833 -87.4333 268° West 220 253 7,000 -540 Descending Chicago TRACON
01:31PM 41.9833 -87.5167 270° West 211 243 6,600 -840 Descending Chicago TRACON
01:32PM 41.9833 -87.5833 270° West 208 239 5,400 -1,320 Descending Chicago TRACON
01:33PM 41.9833 -87.6667 270° West 205 236 4,200 -1,200 Descending Chicago TRACON
01:34PM 41.9833 -87.7333 270° West 208 239 3,000 -1,140 Descending Chicago TRACON
01:35PM 41.9833 -87.8000 270° West 165 190 2,000 -900 Descending Chicago TRACON
01:36PM 41.9833 -87.8500 270° West 125 144 1,300 -720 Descending Chicago TRACON
01:39PM 41.9667 -87.9000 270° West  Level FlightAware Approximate